EPSC

Details ICAO EPSC (SZZ)
Name GOLENIOW
Region Poland
Timezone Europe/Warsaw (UTC+2.0)
Plans Departing 839
Arriving 719
Stats Elevation 152 ft / 46 m (AMSL)
Location 53.584500° 14.903600°
Runways 1
Magnetic Variation 5.203° E
Sunrise 2024-07-24 03:04:18 UTC / 2024-07-24 05:04:18 Local
Sunset 2024-07-24 19:11:45 UTC / 2024-07-24 21:11:45 Local
Advertisement - Login to hide

Runways

ID Width Length Bearing (true/mag) Surface Threshold Overrun Markings Lighting
13 197 ft / 60 m 8,190 ft / 2,496 m 130.95° / 125.75° ASPHALT 0 ft / 0 m 0 ft / 0 m APP CENTERLINE EDGE THRESHOLD MALSF
31 197 ft / 60 m 8,190 ft / 2,496 m 310.97° / 305.77° ASPHALT 0 ft / 0 m 0 ft / 0 m APP CENTERLINE EDGE THRESHOLD MALSF

Approach Navaids

Runway Type Ident Frequency Range Bearing (true/mag) Slope Elevation
31 LOC-ILS SZC 110.50 MHz 18 nm / 33 km 310.96° / 305.76° - 152 ft / 46 m (AMSL)
31 GS SZC 110.50 MHz 10 nm / 19 km 310.96° / 305.76° 3.00° 152 ft / 46 m (AMSL)
31 DME SZC 110.50 MHz 18 nm / 33 km - - 197 ft / 60 m (AMSL)

Map

Weather


0- 5 10 15 20 25 30 35+ Temperature / °C

Clouds and Precipitation
Forecast for 2024-04-15 18:00 UTC. Updated 3 months ago

Ground ~20,000 ft ~40,000 ft Winds

METAR

EPSC 241430Z 30014KT 9999 FEW040 22/13 Q1014

TAF

TAF EPSC 241130Z 2412/2512 30010KT CAVOK PROB30 TEMPO 2412/2415 30015G25KT -SHRA SCT040CB

Frequencies

Tower 121.25 MHz SZCZECIN TWR
Warning: Do not use this data for real-world aviation or navigation. No guarantee of current accuracy is given.